sensor_id;sensor_type;location;lat;lon;timestamp;temperature;humidity
16532;DHT22;8378;57.698;11.958;2022-10-18T00:00:37;22.30;99.90
16532;DHT22;8378;57.698;11.958;2022-10-18T00:03:03;22.30;99.90
16532;DHT22;8378;57.698;11.958;2022-10-18T00:05:28;22.30;99.90
16532;DHT22;8378;57.698;11.958;2022-10-18T00:07:54;22.30;99.90
16532;DHT22;8378;57.698;11.958;2022-10-18T00:10:19;22.30;99.90
16532;DHT22;8378;57.698;11.958;2022-10-18T00:12:45;22.30;99.90
16532;DHT22;8378;57.698;11.958;2022-10-18T00:15:11;22.30;99.90
16532;DHT22;8378;57.698;11.958;2022-10-18T00:17:38;22.30;99.90
16532;DHT22;8378;57.698;11.958;2022-10-18T00:20:05;22.30;99.90
16532;DHT22;8378;57.698;11.958;2022-10-18T00:22:34;22.30;99.90
16532;DHT22;8378;57.698;11.958;2022-10-18T00:24:59;22.30;99.90
16532;DHT22;8378;57.698;11.958;2022-10-18T00:27:28;22.30;99.90
16532;DHT22;8378;57.698;11.958;2022-10-18T00:29:53;22.30;99.90
16532;DHT22;8378;57.698;11.958;2022-10-18T00:32:19;22.30;99.90
16532;DHT22;8378;57.698;11.958;2022-10-18T00:34:45;22.30;99.90
16532;DHT22;8378;57.698;11.958;2022-10-18T00:37:11;22.30;99.90
16532;DHT22;8378;57.698;11.958;2022-10-18T00:39:36;22.30;99.90
16532;DHT22;8378;57.698;11.958;2022-10-18T00:42:02;22.30;99.90
16532;DHT22;8378;57.698;11.958;2022-10-18T00:47:07;22.30;99.90
16532;DHT22;8378;57.698;11.958;2022-10-18T00:49:39;22.30;99.90
16532;DHT22;8378;57.698;11.958;2022-10-18T00:52:31;22.30;99.90
16532;DHT22;8378;57.698;11.958;2022-10-18T00:54:58;22.30;99.90
16532;DHT22;8378;57.698;11.958;2022-10-18T00:57:24;22.30;99.90
16532;DHT22;8378;57.698;11.958;2022-10-18T00:59:50;22.30;99.90
16532;DHT22;8378;57.698;11.958;2022-10-18T01:02:16;22.30;99.90
16532;DHT22;8378;57.698;11.958;2022-10-18T01:04:46;22.30;99.90
16532;DHT22;8378;57.698;11.958;2022-10-18T01:07:17;22.30;99.90
16532;DHT22;8378;57.698;11.958;2022-10-18T01:15:26;22.30;99.90
16532;DHT22;8378;57.698;11.958;2022-10-18T01:18:29;22.30;99.90
16532;DHT22;8378;57.698;11.958;2022-10-18T01:21:14;22.30;99.90
16532;DHT22;8378;57.698;11.958;2022-10-18T01:32:02;22.30;99.90
16532;DHT22;8378;57.698;11.958;2022-10-18T01:34:33;22.30;99.90
16532;DHT22;8378;57.698;11.958;2022-10-18T01:37:01;22.30;99.90
16532;DHT22;8378;57.698;11.958;2022-10-18T01:39:32;22.30;99.90
16532;DHT22;8378;57.698;11.958;2022-10-18T01:42:01;22.30;99.90
16532;DHT22;8378;57.698;11.958;2022-10-18T01:44:30;22.30;99.90
16532;DHT22;8378;57.698;11.958;2022-10-18T01:46:57;22.30;99.90
16532;DHT22;8378;57.698;11.958;2022-10-18T01:49:25;22.30;99.90
16532;DHT22;8378;57.698;11.958;2022-10-18T01:51:51;22.30;99.90
16532;DHT22;8378;57.698;11.958;2022-10-18T01:54:20;22.30;99.90
16532;DHT22;8378;57.698;11.958;2022-10-18T01:56:59;22.30;99.90
16532;DHT22;8378;57.698;11.958;2022-10-18T02:05:19;22.30;99.90
16532;DHT22;8378;57.698;11.958;2022-10-18T02:07:55;22.30;99.90
16532;DHT22;8378;57.698;11.958;2022-10-18T02:10:54;22.30;99.90
16532;DHT22;8378;57.698;11.958;2022-10-18T02:13:24;22.30;99.90
16532;DHT22;8378;57.698;11.958;2022-10-18T02:15:53;22.30;99.90
16532;DHT22;8378;57.698;11.958;2022-10-18T02:18:24;22.30;99.90
16532;DHT22;8378;57.698;11.958;2022-10-18T02:20:52;22.30;99.90
16532;DHT22;8378;57.698;11.958;2022-10-18T02:23:21;22.30;99.90
16532;DHT22;8378;57.698;11.958;2022-10-18T02:25:48;22.30;99.90
16532;DHT22;8378;57.698;11.958;2022-10-18T02:28:14;22.30;99.90
16532;DHT22;8378;57.698;11.958;2022-10-18T02:30:46;22.30;99.90
16532;DHT22;8378;57.698;11.958;2022-10-18T02:36:12;22.30;99.90
16532;DHT22;8378;57.698;11.958;2022-10-18T02:38:40;22.30;99.90
16532;DHT22;8378;57.698;11.958;2022-10-18T02:41:06;22.30;99.90
16532;DHT22;8378;57.698;11.958;2022-10-18T02:43:32;22.30;99.90
16532;DHT22;8378;57.698;11.958;2022-10-18T02:45:59;22.30;99.90
16532;DHT22;8378;57.698;11.958;2022-10-18T02:48:25;22.30;99.90
16532;DHT22;8378;57.698;11.958;2022-10-18T02:50:51;22.30;99.90
16532;DHT22;8378;57.698;11.958;2022-10-18T02:53:16;22.30;99.90
16532;DHT22;8378;57.698;11.958;2022-10-18T02:55:42;22.30;99.90
16532;DHT22;8378;57.698;11.958;2022-10-18T02:58:08;22.30;99.90
16532;DHT22;8378;57.698;11.958;2022-10-18T03:00:33;22.30;99.90
16532;DHT22;8378;57.698;11.958;2022-10-18T03:02:59;22.30;99.90
16532;DHT22;8378;57.698;11.958;2022-10-18T03:05:24;22.30;99.90
16532;DHT22;8378;57.698;11.958;2022-10-18T03:07:50;22.30;99.90
16532;DHT22;8378;57.698;11.958;2022-10-18T03:10:16;22.30;99.90
16532;DHT22;8378;57.698;11.958;2022-10-18T03:12:41;22.30;99.90
16532;DHT22;8378;57.698;11.958;2022-10-18T03:15:07;22.30;99.90
16532;DHT22;8378;57.698;11.958;2022-10-18T03:17:32;22.30;99.90
16532;DHT22;8378;57.698;11.958;2022-10-18T03:19:58;22.30;99.90
16532;DHT22;8378;57.698;11.958;2022-10-18T03:22:24;22.30;99.90
16532;DHT22;8378;57.698;11.958;2022-10-18T03:24:49;22.30;99.90
16532;DHT22;8378;57.698;11.958;2022-10-18T03:27:15;22.30;99.90
16532;DHT22;8378;57.698;11.958;2022-10-18T03:29:40;22.30;99.90
16532;DHT22;8378;57.698;11.958;2022-10-18T03:32:06;22.30;99.90
16532;DHT22;8378;57.698;11.958;2022-10-18T03:34:32;22.30;99.90
16532;DHT22;8378;57.698;11.958;2022-10-18T03:36:57;22.30;99.90
16532;DHT22;8378;57.698;11.958;2022-10-18T03:39:23;22.30;99.90
16532;DHT22;8378;57.698;11.958;2022-10-18T03:41:48;22.30;99.90
16532;DHT22;8378;57.698;11.958;2022-10-18T03:44:14;22.30;99.90
16532;DHT22;8378;57.698;11.958;2022-10-18T03:46:40;22.30;99.90
16532;DHT22;8378;57.698;11.958;2022-10-18T03:49:06;22.30;99.90
16532;DHT22;8378;57.698;11.958;2022-10-18T03:51:31;22.30;99.90
16532;DHT22;8378;57.698;11.958;2022-10-18T03:53:57;22.30;99.90
16532;DHT22;8378;57.698;11.958;2022-10-18T03:56:22;22.30;99.90
16532;DHT22;8378;57.698;11.958;2022-10-18T03:58:48;22.30;99.90
16532;DHT22;8378;57.698;11.958;2022-10-18T04:01:14;22.30;99.90
16532;DHT22;8378;57.698;11.958;2022-10-18T04:03:39;22.30;99.90
16532;DHT22;8378;57.698;11.958;2022-10-18T04:06:05;22.30;99.90
16532;DHT22;8378;57.698;11.958;2022-10-18T04:08:32;22.30;99.90
16532;DHT22;8378;57.698;11.958;2022-10-18T04:10:57;22.30;99.90
16532;DHT22;8378;57.698;11.958;2022-10-18T04:13:23;22.30;99.90
16532;DHT22;8378;57.698;11.958;2022-10-18T04:15:49;22.30;99.90
16532;DHT22;8378;57.698;11.958;2022-10-18T04:18:14;22.30;99.90
16532;DHT22;8378;57.698;11.958;2022-10-18T04:20:40;22.30;99.90
16532;DHT22;8378;57.698;11.958;2022-10-18T04:23:05;22.30;99.90
16532;DHT22;8378;57.698;11.958;2022-10-18T04:25:31;22.30;99.90
16532;DHT22;8378;57.698;11.958;2022-10-18T04:27:56;22.30;99.90
16532;DHT22;8378;57.698;11.958;2022-10-18T04:30:22;22.30;99.90
16532;DHT22;8378;57.698;11.958;2022-10-18T04:32:48;22.30;99.90
16532;DHT22;8378;57.698;11.958;2022-10-18T04:35:13;22.30;99.90
16532;DHT22;8378;57.698;11.958;2022-10-18T04:37:39;22.30;99.90
16532;DHT22;8378;57.698;11.958;2022-10-18T04:40:05;22.30;99.90
16532;DHT22;8378;57.698;11.958;2022-10-18T04:42:31;22.30;99.90
16532;DHT22;8378;57.698;11.958;2022-10-18T04:44:56;22.30;99.90
16532;DHT22;8378;57.698;11.958;2022-10-18T04:47:22;22.30;99.90
16532;DHT22;8378;57.698;11.958;2022-10-18T04:49:48;22.30;99.90
16532;DHT22;8378;57.698;11.958;2022-10-18T04:52:13;22.30;99.90
16532;DHT22;8378;57.698;11.958;2022-10-18T04:54:39;22.30;99.90
16532;DHT22;8378;57.698;11.958;2022-10-18T04:57:04;22.30;99.90
16532;DHT22;8378;57.698;11.958;2022-10-18T04:59:30;22.30;99.90
16532;DHT22;8378;57.698;11.958;2022-10-18T05:01:56;22.30;99.90
16532;DHT22;8378;57.698;11.958;2022-10-18T05:04:21;22.30;99.90
16532;DHT22;8378;57.698;11.958;2022-10-18T05:06:47;22.30;99.90
16532;DHT22;8378;57.698;11.958;2022-10-18T05:09:12;22.30;99.90
16532;DHT22;8378;57.698;11.958;2022-10-18T05:11:38;22.30;99.90
16532;DHT22;8378;57.698;11.958;2022-10-18T05:14:04;22.30;99.90
16532;DHT22;8378;57.698;11.958;2022-10-18T05:16:29;22.30;99.90
16532;DHT22;8378;57.698;11.958;2022-10-18T05:18:56;22.20;99.90
16532;DHT22;8378;57.698;11.958;2022-10-18T05:21:22;22.30;99.90
16532;DHT22;8378;57.698;11.958;2022-10-18T05:23:47;22.30;99.90
16532;DHT22;8378;57.698;11.958;2022-10-18T05:26:13;22.30;99.90
16532;DHT22;8378;57.698;11.958;2022-10-18T05:28:38;22.30;99.90
16532;DHT22;8378;57.698;11.958;2022-10-18T05:31:06;22.30;99.90
16532;DHT22;8378;57.698;11.958;2022-10-18T05:33:32;22.30;99.90
16532;DHT22;8378;57.698;11.958;2022-10-18T05:35:58;22.30;99.90
16532;DHT22;8378;57.698;11.958;2022-10-18T05:38:24;22.30;99.90
16532;DHT22;8378;57.698;11.958;2022-10-18T05:40:50;22.30;99.90
16532;DHT22;8378;57.698;11.958;2022-10-18T05:43:16;22.30;99.90
16532;DHT22;8378;57.698;11.958;2022-10-18T05:45:48;22.30;99.90
16532;DHT22;8378;57.698;11.958;2022-10-18T05:48:14;22.20;99.90
16532;DHT22;8378;57.698;11.958;2022-10-18T05:50:40;22.30;99.90
16532;DHT22;8378;57.698;11.958;2022-10-18T05:53:05;22.20;99.90
16532;DHT22;8378;57.698;11.958;2022-10-18T05:55:31;22.30;99.90
16532;DHT22;8378;57.698;11.958;2022-10-18T05:57:56;22.30;99.90
16532;DHT22;8378;57.698;11.958;2022-10-18T06:00:22;22.20;99.90
16532;DHT22;8378;57.698;11.958;2022-10-18T06:02:48;22.20;99.90
16532;DHT22;8378;57.698;11.958;2022-10-18T06:05:13;22.30;99.90
16532;DHT22;8378;57.698;11.958;2022-10-18T06:07:39;22.20;99.90
16532;DHT22;8378;57.698;11.958;2022-10-18T06:10:05;22.30;99.90
16532;DHT22;8378;57.698;11.958;2022-10-18T06:12:30;22.30;99.90
16532;DHT22;8378;57.698;11.958;2022-10-18T06:14:56;22.30;99.90
16532;DHT22;8378;57.698;11.958;2022-10-18T06:17:22;22.30;99.90
16532;DHT22;8378;57.698;11.958;2022-10-18T06:19:47;22.20;99.90
16532;DHT22;8378;57.698;11.958;2022-10-18T06:22:13;22.20;99.90
16532;DHT22;8378;57.698;11.958;2022-10-18T06:24:38;22.20;99.90
16532;DHT22;8378;57.698;11.958;2022-10-18T06:27:04;22.30;99.90
16532;DHT22;8378;57.698;11.958;2022-10-18T06:29:34;22.20;99.90
16532;DHT22;8378;57.698;11.958;2022-10-18T06:31:59;22.20;99.90
16532;DHT22;8378;57.698;11.958;2022-10-18T06:34:25;22.20;99.90
16532;DHT22;8378;57.698;11.958;2022-10-18T06:36:51;22.20;99.90
16532;DHT22;8378;57.698;11.958;2022-10-18T06:39:16;22.20;99.90
16532;DHT22;8378;57.698;11.958;2022-10-18T06:41:42;22.20;99.90
16532;DHT22;8378;57.698;11.958;2022-10-18T06:44:08;22.30;99.90
16532;DHT22;8378;57.698;11.958;2022-10-18T06:46:39;22.30;99.90
16532;DHT22;8378;57.698;11.958;2022-10-18T06:49:05;22.30;99.90
16532;DHT22;8378;57.698;11.958;2022-10-18T06:51:31;22.30;99.90
16532;DHT22;8378;57.698;11.958;2022-10-18T06:53:56;22.30;99.90
16532;DHT22;8378;57.698;11.958;2022-10-18T06:56:22;22.30;99.90
16532;DHT22;8378;57.698;11.958;2022-10-18T06:58:48;22.30;99.90
16532;DHT22;8378;57.698;11.958;2022-10-18T07:01:15;22.30;99.90
16532;DHT22;8378;57.698;11.958;2022-10-18T07:03:41;22.30;99.90
16532;DHT22;8378;57.698;11.958;2022-10-18T07:06:08;22.30;99.90
16532;DHT22;8378;57.698;11.958;2022-10-18T07:08:34;22.30;99.90
16532;DHT22;8378;57.698;11.958;2022-10-18T07:11:00;22.30;99.90
16532;DHT22;8378;57.698;11.958;2022-10-18T07:13:28;22.30;99.90
16532;DHT22;8378;57.698;11.958;2022-10-18T07:16:10;22.30;99.90
16532;DHT22;8378;57.698;11.958;2022-10-18T07:18:39;22.30;99.90
16532;DHT22;8378;57.698;11.958;2022-10-18T07:21:10;22.30;99.90
16532;DHT22;8378;57.698;11.958;2022-10-18T07:23:38;22.30;99.90
16532;DHT22;8378;57.698;11.958;2022-10-18T07:26:12;22.30;99.90
16532;DHT22;8378;57.698;11.958;2022-10-18T07:28:38;22.30;99.90
16532;DHT22;8378;57.698;11.958;2022-10-18T07:31:08;22.30;99.90
16532;DHT22;8378;57.698;11.958;2022-10-18T07:33:34;22.30;99.90
16532;DHT22;8378;57.698;11.958;2022-10-18T07:36:04;22.30;99.90
16532;DHT22;8378;57.698;11.958;2022-10-18T07:38:30;22.30;99.90
16532;DHT22;8378;57.698;11.958;2022-10-18T07:40:57;22.30;99.90
16532;DHT22;8378;57.698;11.958;2022-10-18T07:43:23;22.30;99.90
16532;DHT22;8378;57.698;11.958;2022-10-18T07:45:57;22.30;99.90
16532;DHT22;8378;57.698;11.958;2022-10-18T07:48:23;22.30;99.90
16532;DHT22;8378;57.698;11.958;2022-10-18T07:50:49;22.30;99.90
16532;DHT22;8378;57.698;11.958;2022-10-18T07:53:15;22.30;99.90
16532;DHT22;8378;57.698;11.958;2022-10-18T07:55:40;22.30;99.90
16532;DHT22;8378;57.698;11.958;2022-10-18T07:58:06;22.30;99.90
16532;DHT22;8378;57.698;11.958;2022-10-18T08:00:32;22.30;99.90
16532;DHT22;8378;57.698;11.958;2022-10-18T08:02:58;22.30;99.90
16532;DHT22;8378;57.698;11.958;2022-10-18T08:05:27;22.30;99.90
16532;DHT22;8378;57.698;11.958;2022-10-18T08:07:53;22.30;99.90
16532;DHT22;8378;57.698;11.958;2022-10-18T08:10:20;22.30;99.90
16532;DHT22;8378;57.698;11.958;2022-10-18T08:12:46;22.30;99.90
16532;DHT22;8378;57.698;11.958;2022-10-18T08:15:12;22.30;99.90
16532;DHT22;8378;57.698;11.958;2022-10-18T08:17:37;22.30;99.90
16532;DHT22;8378;57.698;11.958;2022-10-18T08:20:04;22.30;99.90
16532;DHT22;8378;57.698;11.958;2022-10-18T08:22:30;22.30;99.90
16532;DHT22;8378;57.698;11.958;2022-10-18T08:24:55;22.40;99.90
16532;DHT22;8378;57.698;11.958;2022-10-18T08:27:21;22.40;99.90
16532;DHT22;8378;57.698;11.958;2022-10-18T08:29:47;22.40;99.90
16532;DHT22;8378;57.698;11.958;2022-10-18T08:32:12;22.40;99.90
16532;DHT22;8378;57.698;11.958;2022-10-18T08:34:38;22.40;99.90
16532;DHT22;8378;57.698;11.958;2022-10-18T08:37:04;22.40;99.90
16532;DHT22;8378;57.698;11.958;2022-10-18T08:39:29;22.40;99.90
16532;DHT22;8378;57.698;11.958;2022-10-18T08:42:43;22.40;99.90
16532;DHT22;8378;57.698;11.958;2022-10-18T08:45:11;22.40;99.90
16532;DHT22;8378;57.698;11.958;2022-10-18T08:47:44;22.40;99.90
16532;DHT22;8378;57.698;11.958;2022-10-18T08:50:19;22.40;99.90
16532;DHT22;8378;57.698;11.958;2022-10-18T08:53:05;22.40;99.90
16532;DHT22;8378;57.698;11.958;2022-10-18T08:56:06;22.40;99.90
16532;DHT22;8378;57.698;11.958;2022-10-18T08:58:40;22.40;99.90
16532;DHT22;8378;57.698;11.958;2022-10-18T09:01:26;22.40;99.90
16532;DHT22;8378;57.698;11.958;2022-10-18T09:13:12;22.40;99.90
16532;DHT22;8378;57.698;11.958;2022-10-18T09:15:54;22.40;99.90
16532;DHT22;8378;57.698;11.958;2022-10-18T09:18:56;22.40;99.90
16532;DHT22;8378;57.698;11.958;2022-10-18T09:21:29;22.40;99.90
16532;DHT22;8378;57.698;11.958;2022-10-18T09:25:04;22.40;99.90
16532;DHT22;8378;57.698;11.958;2022-10-18T09:27:04;22.50;99.90
16532;DHT22;8378;57.698;11.958;2022-10-18T09:30:02;22.50;99.90
16532;DHT22;8378;57.698;11.958;2022-10-18T09:32:41;22.50;99.90
16532;DHT22;8378;57.698;11.958;2022-10-18T09:35:27;22.50;99.90
16532;DHT22;8378;57.698;11.958;2022-10-18T09:37:59;22.50;99.90
16532;DHT22;8378;57.698;11.958;2022-10-18T09:40:29;22.50;99.90
16532;DHT22;8378;57.698;11.958;2022-10-18T09:43:13;22.50;99.90
16532;DHT22;8378;57.698;11.958;2022-10-18T09:45:43;22.50;99.90
16532;DHT22;8378;57.698;11.958;2022-10-18T09:48:20;22.50;99.90
16532;DHT22;8378;57.698;11.958;2022-10-18T09:51:06;22.50;99.90
16532;DHT22;8378;57.698;11.958;2022-10-18T09:56:44;22.50;99.90
16532;DHT22;8378;57.698;11.958;2022-10-18T09:59:36;22.50;99.90
16532;DHT22;8378;57.698;11.958;2022-10-18T10:02:02;22.50;99.90
16532;DHT22;8378;57.698;11.958;2022-10-18T10:04:28;22.50;99.90
16532;DHT22;8378;57.698;11.958;2022-10-18T10:06:55;22.50;99.90
16532;DHT22;8378;57.698;11.958;2022-10-18T10:09:30;22.50;99.90
16532;DHT22;8378;57.698;11.958;2022-10-18T10:11:56;22.50;99.90
16532;DHT22;8378;57.698;11.958;2022-10-18T10:14:25;22.50;99.90
16532;DHT22;8378;57.698;11.958;2022-10-18T10:17:04;22.50;99.90
16532;DHT22;8378;57.698;11.958;2022-10-18T10:22:26;22.60;99.90
16532;DHT22;8378;57.698;11.958;2022-10-18T10:24:53;22.50;99.90
16532;DHT22;8378;57.698;11.958;2022-10-18T10:27:31;22.50;99.90
16532;DHT22;8378;57.698;11.958;2022-10-18T10:29:59;22.50;99.90
16532;DHT22;8378;57.698;11.958;2022-10-18T10:32:29;22.50;99.90
16532;DHT22;8378;57.698;11.958;2022-10-18T10:34:55;22.50;99.90
16532;DHT22;8378;57.698;11.958;2022-10-18T10:40:13;22.40;99.90
16532;DHT22;8378;57.698;11.958;2022-10-18T10:43:05;22.40;99.90
16532;DHT22;8378;57.698;11.958;2022-10-18T10:45:42;22.40;99.90
16532;DHT22;8378;57.698;11.958;2022-10-18T10:48:19;22.40;99.90
16532;DHT22;8378;57.698;11.958;2022-10-18T10:51:06;22.30;99.90
16532;DHT22;8378;57.698;11.958;2022-10-18T10:56:01;22.30;99.90
16532;DHT22;8378;57.698;11.958;2022-10-18T10:58:33;22.30;99.90
16532;DHT22;8378;57.698;11.958;2022-10-18T11:01:23;22.30;99.90
16532;DHT22;8378;57.698;11.958;2022-10-18T11:03:55;22.30;99.90
16532;DHT22;8378;57.698;11.958;2022-10-18T11:06:41;22.30;99.90
16532;DHT22;8378;57.698;11.958;2022-10-18T11:09:22;22.30;99.90
16532;DHT22;8378;57.698;11.958;2022-10-18T11:12:18;22.30;99.90
16532;DHT22;8378;57.698;11.958;2022-10-18T11:14:44;22.30;99.90
16532;DHT22;8378;57.698;11.958;2022-10-18T11:17:18;22.40;99.90
16532;DHT22;8378;57.698;11.958;2022-10-18T11:19:58;22.40;99.90
16532;DHT22;8378;57.698;11.958;2022-10-18T11:22:31;22.40;99.90
16532;DHT22;8378;57.698;11.958;2022-10-18T11:24:58;22.40;99.90
16532;DHT22;8378;57.698;11.958;2022-10-18T11:27:34;22.40;99.90
16532;DHT22;8378;57.698;11.958;2022-10-18T11:30:34;22.40;99.90
16532;DHT22;8378;57.698;11.958;2022-10-18T11:33:21;22.40;99.90
16532;DHT22;8378;57.698;11.958;2022-10-18T11:36:03;22.40;99.90
16532;DHT22;8378;57.698;11.958;2022-10-18T11:41:28;22.40;99.90
16532;DHT22;8378;57.698;11.958;2022-10-18T11:43:58;22.40;99.90
16532;DHT22;8378;57.698;11.958;2022-10-18T11:46:52;22.50;99.90
16532;DHT22;8378;57.698;11.958;2022-10-18T11:55:34;22.50;99.90
16532;DHT22;8378;57.698;11.958;2022-10-18T12:01:26;22.50;99.90
16532;DHT22;8378;57.698;11.958;2022-10-18T12:04:17;22.50;99.90
16532;DHT22;8378;57.698;11.958;2022-10-18T12:06:47;22.50;99.90
16532;DHT22;8378;57.698;11.958;2022-10-18T12:09:27;22.50;99.90
16532;DHT22;8378;57.698;11.958;2022-10-18T12:12:17;22.50;99.90
16532;DHT22;8378;57.698;11.958;2022-10-18T12:15:05;22.50;99.90
16532;DHT22;8378;57.698;11.958;2022-10-18T12:17:40;22.50;99.90
16532;DHT22;8378;57.698;11.958;2022-10-18T12:20:14;22.50;99.90
16532;DHT22;8378;57.698;11.958;2022-10-18T12:22:47;22.50;99.90
16532;DHT22;8378;57.698;11.958;2022-10-18T12:25:15;22.50;99.90
16532;DHT22;8378;57.698;11.958;2022-10-18T12:27:59;22.50;99.90
16532;DHT22;8378;57.698;11.958;2022-10-18T12:30:48;22.50;99.90
16532;DHT22;8378;57.698;11.958;2022-10-18T12:33:18;22.50;99.90
16532;DHT22;8378;57.698;11.958;2022-10-18T12:41:24;22.50;99.90
16532;DHT22;8378;57.698;11.958;2022-10-18T12:43:56;22.50;99.90
16532;DHT22;8378;57.698;11.958;2022-10-18T12:46:23;22.50;99.90
16532;DHT22;8378;57.698;11.958;2022-10-18T12:49:10;22.50;99.90
16532;DHT22;8378;57.698;11.958;2022-10-18T12:51:51;22.50;99.90
16532;DHT22;8378;57.698;11.958;2022-10-18T12:54:22;22.50;99.90
16532;DHT22;8378;57.698;11.958;2022-10-18T12:56:49;22.50;99.90
16532;DHT22;8378;57.698;11.958;2022-10-18T13:09:38;22.60;99.90
16532;DHT22;8378;57.698;11.958;2022-10-18T13:17:43;22.60;99.90
16532;DHT22;8378;57.698;11.958;2022-10-18T13:22:54;22.60;99.90
16532;DHT22;8378;57.698;11.958;2022-10-18T13:25:51;22.60;99.90
16532;DHT22;8378;57.698;11.958;2022-10-18T13:33:32;22.60;99.90
16532;DHT22;8378;57.698;11.958;2022-10-18T13:41:28;22.60;99.90
16532;DHT22;8378;57.698;11.958;2022-10-18T13:58:11;22.60;99.90
16532;DHT22;8378;57.698;11.958;2022-10-18T14:00:57;22.60;99.90
16532;DHT22;8378;57.698;11.958;2022-10-18T14:03:51;22.60;99.90
16532;DHT22;8378;57.698;11.958;2022-10-18T14:06:24;22.60;99.90
16532;DHT22;8378;57.698;11.958;2022-10-18T14:11:44;22.60;99.90
16532;DHT22;8378;57.698;11.958;2022-10-18T14:14:21;22.60;99.90
16532;DHT22;8378;57.698;11.958;2022-10-18T14:19:33;22.60;99.90
16532;DHT22;8378;57.698;11.958;2022-10-18T14:22:14;22.60;99.90
16532;DHT22;8378;57.698;11.958;2022-10-18T14:24:54;22.60;99.90
16532;DHT22;8378;57.698;11.958;2022-10-18T14:27:31;22.60;99.90
16532;DHT22;8378;57.698;11.958;2022-10-18T14:30:09;22.60;99.90
16532;DHT22;8378;57.698;11.958;2022-10-18T14:32:35;22.60;99.90
16532;DHT22;8378;57.698;11.958;2022-10-18T14:35:01;22.60;99.90
16532;DHT22;8378;57.698;11.958;2022-10-18T14:37:33;22.60;99.90
16532;DHT22;8378;57.698;11.958;2022-10-18T14:39:59;22.60;99.90
16532;DHT22;8378;57.698;11.958;2022-10-18T14:42:26;22.60;99.90
16532;DHT22;8378;57.698;11.958;2022-10-18T14:44:53;22.60;99.90
16532;DHT22;8378;57.698;11.958;2022-10-18T14:47:24;22.60;99.90
16532;DHT22;8378;57.698;11.958;2022-10-18T14:49:51;22.70;99.90
16532;DHT22;8378;57.698;11.958;2022-10-18T14:52:30;22.60;99.90
16532;DHT22;8378;57.698;11.958;2022-10-18T14:54:57;22.60;99.90
16532;DHT22;8378;57.698;11.958;2022-10-18T14:57:28;22.60;99.90
16532;DHT22;8378;57.698;11.958;2022-10-18T15:00:00;22.60;99.90
16532;DHT22;8378;57.698;11.958;2022-10-18T15:02:29;22.60;99.90
16532;DHT22;8378;57.698;11.958;2022-10-18T15:05:13;22.60;99.90
16532;DHT22;8378;57.698;11.958;2022-10-18T15:07:42;22.60;99.90
16532;DHT22;8378;57.698;11.958;2022-10-18T15:10:24;22.60;99.90
16532;DHT22;8378;57.698;11.958;2022-10-18T15:12:52;22.60;99.90
16532;DHT22;8378;57.698;11.958;2022-10-18T15:15:24;22.60;99.90
16532;DHT22;8378;57.698;11.958;2022-10-18T15:17:51;22.60;99.90
16532;DHT22;8378;57.698;11.958;2022-10-18T15:20:22;22.60;99.90
16532;DHT22;8378;57.698;11.958;2022-10-18T15:22:49;22.60;99.90
16532;DHT22;8378;57.698;11.958;2022-10-18T15:25:25;22.60;99.90
16532;DHT22;8378;57.698;11.958;2022-10-18T15:27:56;22.60;99.90
16532;DHT22;8378;57.698;11.958;2022-10-18T15:30:27;22.60;99.90
16532;DHT22;8378;57.698;11.958;2022-10-18T15:33:01;22.60;99.90
16532;DHT22;8378;57.698;11.958;2022-10-18T15:35:33;22.60;99.90
16532;DHT22;8378;57.698;11.958;2022-10-18T15:38:07;22.60;99.90
16532;DHT22;8378;57.698;11.958;2022-10-18T15:40:37;22.60;99.90
16532;DHT22;8378;57.698;11.958;2022-10-18T15:43:31;22.60;99.90
16532;DHT22;8378;57.698;11.958;2022-10-18T15:45:58;22.60;99.90
16532;DHT22;8378;57.698;11.958;2022-10-18T15:48:34;22.60;99.90
16532;DHT22;8378;57.698;11.958;2022-10-18T15:51:03;22.60;99.90
16532;DHT22;8378;57.698;11.958;2022-10-18T15:58:45;22.60;99.90
16532;DHT22;8378;57.698;11.958;2022-10-18T16:01:28;22.60;99.90
16532;DHT22;8378;57.698;11.958;2022-10-18T16:03:57;22.60;99.90
16532;DHT22;8378;57.698;11.958;2022-10-18T16:06:23;22.60;99.90
16532;DHT22;8378;57.698;11.958;2022-10-18T16:08:50;22.60;99.90
16532;DHT22;8378;57.698;11.958;2022-10-18T16:11:24;22.60;99.90
16532;DHT22;8378;57.698;11.958;2022-10-18T16:13:51;22.60;99.90
16532;DHT22;8378;57.698;11.958;2022-10-18T16:16:23;22.60;99.90
16532;DHT22;8378;57.698;11.958;2022-10-18T16:18:50;22.60;99.90
16532;DHT22;8378;57.698;11.958;2022-10-18T16:21:36;22.60;99.90
16532;DHT22;8378;57.698;11.958;2022-10-18T16:24:03;22.60;99.90
16532;DHT22;8378;57.698;11.958;2022-10-18T16:26:29;22.60;99.90
16532;DHT22;8378;57.698;11.958;2022-10-18T16:28:55;22.60;99.90
16532;DHT22;8378;57.698;11.958;2022-10-18T16:31:27;22.60;99.90
16532;DHT22;8378;57.698;11.958;2022-10-18T16:33:53;22.60;99.90
16532;DHT22;8378;57.698;11.958;2022-10-18T16:36:28;22.60;99.90
16532;DHT22;8378;57.698;11.958;2022-10-18T16:38:55;22.70;99.90
16532;DHT22;8378;57.698;11.958;2022-10-18T16:41:21;22.70;99.90
16532;DHT22;8378;57.698;11.958;2022-10-18T16:43:48;22.70;99.90
16532;DHT22;8378;57.698;11.958;2022-10-18T16:46:26;22.70;99.90
16532;DHT22;8378;57.698;11.958;2022-10-18T16:48:53;22.70;99.90
16532;DHT22;8378;57.698;11.958;2022-10-18T16:51:19;22.70;99.90
16532;DHT22;8378;57.698;11.958;2022-10-18T16:53:45;22.70;99.90
16532;DHT22;8378;57.698;11.958;2022-10-18T16:58:44;22.70;99.90
16532;DHT22;8378;57.698;11.958;2022-10-18T17:01:11;22.70;99.90
16532;DHT22;8378;57.698;11.958;2022-10-18T17:03:37;22.70;99.90
16532;DHT22;8378;57.698;11.958;2022-10-18T17:06:03;22.80;99.90
16532;DHT22;8378;57.698;11.958;2022-10-18T17:08:28;22.80;99.90
16532;DHT22;8378;57.698;11.958;2022-10-18T17:10:56;22.80;99.90
16532;DHT22;8378;57.698;11.958;2022-10-18T17:13:24;22.80;99.90
16532;DHT22;8378;57.698;11.958;2022-10-18T17:15:51;22.80;99.90
16532;DHT22;8378;57.698;11.958;2022-10-18T17:18:19;22.80;99.90
16532;DHT22;8378;57.698;11.958;2022-10-18T17:20:46;22.80;99.90
16532;DHT22;8378;57.698;11.958;2022-10-18T17:23:12;22.80;99.90
16532;DHT22;8378;57.698;11.958;2022-10-18T17:25:39;22.80;99.90
16532;DHT22;8378;57.698;11.958;2022-10-18T17:28:06;22.80;99.90
16532;DHT22;8378;57.698;11.958;2022-10-18T17:30:32;22.80;99.90
16532;DHT22;8378;57.698;11.958;2022-10-18T17:32:58;22.80;99.90
16532;DHT22;8378;57.698;11.958;2022-10-18T17:35:23;22.80;99.90
16532;DHT22;8378;57.698;11.958;2022-10-18T17:37:50;22.90;99.90
16532;DHT22;8378;57.698;11.958;2022-10-18T17:40:18;22.90;99.90
16532;DHT22;8378;57.698;11.958;2022-10-18T17:42:44;22.80;99.90
16532;DHT22;8378;57.698;11.958;2022-10-18T17:45:09;22.90;99.90
16532;DHT22;8378;57.698;11.958;2022-10-18T17:47:35;22.90;99.90
16532;DHT22;8378;57.698;11.958;2022-10-18T17:50:01;22.90;99.90